<?xml version="1.0" encoding="UTF-8" standalone="no" ?>
<gpx xmlns="http://www.topografix.com/GPX/1/1" xmlns:xsi="http://www.w3.org/2001/XMLSchema-instance" xsi:schemaLocation="http://www.topografix.com/GPX/1/1 http://www.topografix.com/GPX/1/1/gpx.xsd" version="1.1" creator="VisuGPX - https://www.visugpx.com">
  <metadata>
    <name>rando nice 6 km</name>
    <desc><![CDATA[photo dispo
[url]http://rando.pedestre.33.over-blog.com/2018/06/rando-nice-6-km.html[/url]]]></desc>
  </metadata>
  <trk>
    <name><![CDATA[rando nice 6 km]]></name>
    <trkseg>
      <trkpt lat="43.70579" lon="7.26489">
        <ele>21</ele>
        <time>2018-03-24T16:27:23Z</time>
      </trkpt>
      <trkpt lat="43.7094" lon="7.26254">
        <ele>26</ele>
        <time>2018-03-24T16:28:23Z</time>
      </trkpt>
      <trkpt lat="43.70949" lon="7.26301">
        <ele>28</ele>
        <time>2018-03-24T16:29:23Z</time>
      </trkpt>
      <trkpt lat="43.70948" lon="7.26325">
        <ele>28</ele>
        <time>2018-03-24T16:30:23Z</time>
      </trkpt>
      <trkpt lat="43.70967" lon="7.26356">
        <ele>28</ele>
        <time>2018-03-24T16:31:23Z</time>
      </trkpt>
      <trkpt lat="43.70975" lon="7.26406">
        <ele>29</ele>
        <time>2018-03-24T16:32:23Z</time>
      </trkpt>
      <trkpt lat="43.70949" lon="7.26417">
        <ele>28</ele>
        <time>2018-03-24T16:33:23Z</time>
      </trkpt>
      <trkpt lat="43.70955" lon="7.26443">
        <ele>29</ele>
        <time>2018-03-24T16:34:23Z</time>
      </trkpt>
      <trkpt lat="43.70952" lon="7.26483">
        <ele>30</ele>
        <time>2018-03-24T16:35:23Z</time>
      </trkpt>
      <trkpt lat="43.70963" lon="7.2652">
        <ele>31</ele>
        <time>2018-03-24T16:36:23Z</time>
      </trkpt>
      <trkpt lat="43.70977" lon="7.26527">
        <ele>31</ele>
        <time>2018-03-24T16:37:23Z</time>
      </trkpt>
      <trkpt lat="43.71007" lon="7.26525">
        <ele>32</ele>
        <time>2018-03-24T16:38:23Z</time>
      </trkpt>
      <trkpt lat="43.71056" lon="7.26541">
        <ele>34</ele>
        <time>2018-03-24T16:39:23Z</time>
      </trkpt>
      <trkpt lat="43.71069" lon="7.26572">
        <ele>38</ele>
        <time>2018-03-24T16:40:23Z</time>
      </trkpt>
      <trkpt lat="43.71124" lon="7.26572">
        <ele>38</ele>
        <time>2018-03-24T16:41:23Z</time>
      </trkpt>
      <trkpt lat="43.7113" lon="7.26586">
        <ele>40</ele>
        <time>2018-03-24T16:42:23Z</time>
      </trkpt>
      <trkpt lat="43.71126" lon="7.26601">
        <ele>41</ele>
        <time>2018-03-24T16:43:23Z</time>
      </trkpt>
      <trkpt lat="43.71088" lon="7.26615">
        <ele>42</ele>
        <time>2018-03-24T16:44:23Z</time>
      </trkpt>
      <trkpt lat="43.7109" lon="7.26637">
        <ele>43</ele>
        <time>2018-03-24T16:45:23Z</time>
      </trkpt>
      <trkpt lat="43.71108" lon="7.26647">
        <ele>45</ele>
        <time>2018-03-24T16:46:23Z</time>
      </trkpt>
      <trkpt lat="43.71165" lon="7.26676">
        <ele>50</ele>
        <time>2018-03-24T16:47:23Z</time>
      </trkpt>
      <trkpt lat="43.71212" lon="7.26668">
        <ele>53</ele>
        <time>2018-03-24T16:48:23Z</time>
      </trkpt>
      <trkpt lat="43.71266" lon="7.26662">
        <ele>55</ele>
        <time>2018-03-24T16:49:23Z</time>
      </trkpt>
      <trkpt lat="43.71308" lon="7.26665">
        <ele>56</ele>
        <time>2018-03-24T16:50:23Z</time>
      </trkpt>
      <trkpt lat="43.71344" lon="7.26685">
        <ele>56</ele>
        <time>2018-03-24T16:51:23Z</time>
      </trkpt>
      <trkpt lat="43.71381" lon="7.26726">
        <ele>57</ele>
        <time>2018-03-24T16:52:23Z</time>
      </trkpt>
      <trkpt lat="43.71408" lon="7.26703">
        <ele>59</ele>
        <time>2018-03-24T16:53:23Z</time>
      </trkpt>
      <trkpt lat="43.71422" lon="7.26725">
        <ele>60</ele>
        <time>2018-03-24T16:54:23Z</time>
      </trkpt>
      <trkpt lat="43.7144" lon="7.26769">
        <ele>62</ele>
        <time>2018-03-24T16:55:23Z</time>
      </trkpt>
      <trkpt lat="43.71461" lon="7.26814">
        <ele>65</ele>
        <time>2018-03-24T16:56:23Z</time>
      </trkpt>
      <trkpt lat="43.715" lon="7.26894">
        <ele>68</ele>
        <time>2018-03-24T16:57:23Z</time>
      </trkpt>
      <trkpt lat="43.71482" lon="7.26925">
        <ele>66</ele>
        <time>2018-03-24T16:58:23Z</time>
      </trkpt>
      <trkpt lat="43.71545" lon="7.27021">
        <ele>70</ele>
        <time>2018-03-24T16:59:23Z</time>
      </trkpt>
      <trkpt lat="43.71585" lon="7.27097">
        <ele>72</ele>
        <time>2018-03-24T17:00:23Z</time>
      </trkpt>
      <trkpt lat="43.71617" lon="7.27105">
        <ele>75</ele>
        <time>2018-03-24T17:01:23Z</time>
      </trkpt>
      <trkpt lat="43.71616" lon="7.2714">
        <ele>76</ele>
        <time>2018-03-24T17:02:23Z</time>
      </trkpt>
      <trkpt lat="43.71685" lon="7.27155">
        <ele>85</ele>
        <time>2018-03-24T17:03:23Z</time>
      </trkpt>
      <trkpt lat="43.71677" lon="7.27219">
        <ele>87</ele>
        <time>2018-03-24T17:04:23Z</time>
      </trkpt>
      <trkpt lat="43.7187" lon="7.27246">
        <ele>96</ele>
        <time>2018-03-24T17:05:23Z</time>
      </trkpt>
      <trkpt lat="43.7189" lon="7.27269">
        <ele>98</ele>
        <time>2018-03-24T17:06:23Z</time>
      </trkpt>
      <trkpt lat="43.71914" lon="7.27306">
        <ele>103</ele>
        <time>2018-03-24T17:07:23Z</time>
      </trkpt>
      <trkpt lat="43.71984" lon="7.27376">
        <ele>113</ele>
        <time>2018-03-24T17:08:23Z</time>
      </trkpt>
      <trkpt lat="43.72008" lon="7.27443">
        <ele>114</ele>
        <time>2018-03-24T17:09:23Z</time>
      </trkpt>
      <trkpt lat="43.72013" lon="7.27475">
        <ele>114</ele>
        <time>2018-03-24T17:10:23Z</time>
      </trkpt>
      <trkpt lat="43.71987" lon="7.27485">
        <ele>113</ele>
        <time>2018-03-24T17:11:23Z</time>
      </trkpt>
      <trkpt lat="43.7197" lon="7.27498">
        <ele>112</ele>
        <time>2018-03-24T17:12:23Z</time>
      </trkpt>
      <trkpt lat="43.71962" lon="7.27511">
        <ele>112</ele>
        <time>2018-03-24T17:13:23Z</time>
      </trkpt>
      <trkpt lat="43.71954" lon="7.27517">
        <ele>112</ele>
        <time>2018-03-24T17:14:23Z</time>
      </trkpt>
      <trkpt lat="43.7193" lon="7.27512">
        <ele>111</ele>
        <time>2018-03-24T17:15:23Z</time>
      </trkpt>
      <trkpt lat="43.71952" lon="7.27538">
        <ele>112</ele>
        <time>2018-03-24T17:16:23Z</time>
      </trkpt>
      <trkpt lat="43.71966" lon="7.2754">
        <ele>112</ele>
        <time>2018-03-24T17:17:23Z</time>
      </trkpt>
      <trkpt lat="43.71986" lon="7.27539">
        <ele>113</ele>
        <time>2018-03-24T17:18:23Z</time>
      </trkpt>
      <trkpt lat="43.71975" lon="7.27578">
        <ele>113</ele>
        <time>2018-03-24T17:19:23Z</time>
      </trkpt>
      <trkpt lat="43.72016" lon="7.27574">
        <ele>114</ele>
        <time>2018-03-24T17:20:23Z</time>
      </trkpt>
      <trkpt lat="43.72027" lon="7.27598">
        <ele>114</ele>
        <time>2018-03-24T17:21:23Z</time>
      </trkpt>
      <trkpt lat="43.72035" lon="7.27616">
        <ele>114</ele>
        <time>2018-03-24T17:22:23Z</time>
      </trkpt>
      <trkpt lat="43.72041" lon="7.27629">
        <ele>114</ele>
        <time>2018-03-24T17:23:23Z</time>
      </trkpt>
      <trkpt lat="43.72045" lon="7.27654">
        <ele>114</ele>
        <time>2018-03-24T17:24:23Z</time>
      </trkpt>
      <trkpt lat="43.72044" lon="7.27672">
        <ele>114</ele>
        <time>2018-03-24T17:25:23Z</time>
      </trkpt>
      <trkpt lat="43.72039" lon="7.27711">
        <ele>113</ele>
        <time>2018-03-24T17:26:23Z</time>
      </trkpt>
      <trkpt lat="43.72027" lon="7.27799">
        <ele>114</ele>
        <time>2018-03-24T17:27:23Z</time>
      </trkpt>
      <trkpt lat="43.72024" lon="7.27817">
        <ele>115</ele>
        <time>2018-03-24T17:28:23Z</time>
      </trkpt>
      <trkpt lat="43.72015" lon="7.27832">
        <ele>115</ele>
        <time>2018-03-24T17:29:23Z</time>
      </trkpt>
      <trkpt lat="43.72011" lon="7.27853">
        <ele>115</ele>
        <time>2018-03-24T17:30:23Z</time>
      </trkpt>
      <trkpt lat="43.71988" lon="7.27854">
        <ele>114</ele>
        <time>2018-03-24T17:31:23Z</time>
      </trkpt>
      <trkpt lat="43.71987" lon="7.27867">
        <ele>114</ele>
        <time>2018-03-24T17:32:23Z</time>
      </trkpt>
      <trkpt lat="43.71995" lon="7.27893">
        <ele>113</ele>
        <time>2018-03-24T17:33:23Z</time>
      </trkpt>
      <trkpt lat="43.71991" lon="7.27908">
        <ele>112</ele>
        <time>2018-03-24T17:34:23Z</time>
      </trkpt>
      <trkpt lat="43.71946" lon="7.2793">
        <ele>105</ele>
        <time>2018-03-24T17:35:23Z</time>
      </trkpt>
      <trkpt lat="43.71898" lon="7.27926">
        <ele>103</ele>
        <time>2018-03-24T17:36:23Z</time>
      </trkpt>
      <trkpt lat="43.71899" lon="7.27842">
        <ele>115</ele>
        <time>2018-03-24T17:37:23Z</time>
      </trkpt>
      <trkpt lat="43.71928" lon="7.27822">
        <ele>115</ele>
        <time>2018-03-24T17:38:23Z</time>
      </trkpt>
      <trkpt lat="43.71925" lon="7.2777">
        <ele>111</ele>
        <time>2018-03-24T17:39:23Z</time>
      </trkpt>
      <trkpt lat="43.71864" lon="7.27737">
        <ele>115</ele>
        <time>2018-03-24T17:40:23Z</time>
      </trkpt>
      <trkpt lat="43.7181" lon="7.27706">
        <ele>112</ele>
        <time>2018-03-24T17:41:23Z</time>
      </trkpt>
      <trkpt lat="43.7186" lon="7.2751">
        <ele>110</ele>
        <time>2018-03-24T17:42:23Z</time>
      </trkpt>
      <trkpt lat="43.71831" lon="7.27496">
        <ele>110</ele>
        <time>2018-03-24T17:43:23Z</time>
      </trkpt>
      <trkpt lat="43.7176" lon="7.27501">
        <ele>106</ele>
        <time>2018-03-24T17:44:23Z</time>
      </trkpt>
      <trkpt lat="43.71715" lon="7.27489">
        <ele>103</ele>
        <time>2018-03-24T17:45:23Z</time>
      </trkpt>
      <trkpt lat="43.7157" lon="7.27446">
        <ele>99</ele>
        <time>2018-03-24T17:46:23Z</time>
      </trkpt>
      <trkpt lat="43.71475" lon="7.27453">
        <ele>92</ele>
        <time>2018-03-24T17:47:23Z</time>
      </trkpt>
      <trkpt lat="43.71431" lon="7.27482">
        <ele>87</ele>
        <time>2018-03-24T17:48:23Z</time>
      </trkpt>
      <trkpt lat="43.71402" lon="7.275">
        <ele>86</ele>
        <time>2018-03-24T17:49:23Z</time>
      </trkpt>
      <trkpt lat="43.71373" lon="7.27496">
        <ele>85</ele>
        <time>2018-03-24T17:50:23Z</time>
      </trkpt>
      <trkpt lat="43.71231" lon="7.27416">
        <ele>82</ele>
        <time>2018-03-24T17:51:23Z</time>
      </trkpt>
      <trkpt lat="43.71199" lon="7.27408">
        <ele>81</ele>
        <time>2018-03-24T17:52:23Z</time>
      </trkpt>
      <trkpt lat="43.71096" lon="7.27438">
        <ele>84</ele>
        <time>2018-03-24T17:53:23Z</time>
      </trkpt>
      <trkpt lat="43.71084" lon="7.27389">
        <ele>80</ele>
        <time>2018-03-24T17:54:23Z</time>
      </trkpt>
      <trkpt lat="43.71036" lon="7.27353">
        <ele>70</ele>
        <time>2018-03-24T17:55:23Z</time>
      </trkpt>
      <trkpt lat="43.71038" lon="7.27334">
        <ele>69</ele>
        <time>2018-03-24T17:56:23Z</time>
      </trkpt>
      <trkpt lat="43.71107" lon="7.27303">
        <ele>71</ele>
        <time>2018-03-24T17:57:23Z</time>
      </trkpt>
      <trkpt lat="43.71115" lon="7.27283">
        <ele>70</ele>
        <time>2018-03-24T17:58:23Z</time>
      </trkpt>
      <trkpt lat="43.71047" lon="7.27266">
        <ele>66</ele>
        <time>2018-03-24T17:59:23Z</time>
      </trkpt>
      <trkpt lat="43.71087" lon="7.27121">
        <ele>58</ele>
        <time>2018-03-24T18:00:23Z</time>
      </trkpt>
      <trkpt lat="43.70936" lon="7.27045">
        <ele>46</ele>
        <time>2018-03-24T18:01:23Z</time>
      </trkpt>
      <trkpt lat="43.70912" lon="7.2705">
        <ele>44</ele>
        <time>2018-03-24T18:02:23Z</time>
      </trkpt>
      <trkpt lat="43.7089" lon="7.27076">
        <ele>43</ele>
        <time>2018-03-24T18:03:23Z</time>
      </trkpt>
      <trkpt lat="43.70877" lon="7.27106">
        <ele>44</ele>
        <time>2018-03-24T18:04:23Z</time>
      </trkpt>
      <trkpt lat="43.70853" lon="7.27164">
        <ele>46</ele>
        <time>2018-03-24T18:05:23Z</time>
      </trkpt>
      <trkpt lat="43.70829" lon="7.27173">
        <ele>45</ele>
        <time>2018-03-24T18:06:23Z</time>
      </trkpt>
      <trkpt lat="43.70809" lon="7.27157">
        <ele>44</ele>
        <time>2018-03-24T18:07:23Z</time>
      </trkpt>
      <trkpt lat="43.70791" lon="7.27049">
        <ele>36</ele>
        <time>2018-03-24T18:08:23Z</time>
      </trkpt>
      <trkpt lat="43.70772" lon="7.27024">
        <ele>33</ele>
        <time>2018-03-24T18:09:23Z</time>
      </trkpt>
      <trkpt lat="43.7073" lon="7.27015">
        <ele>31</ele>
        <time>2018-03-24T18:10:23Z</time>
      </trkpt>
      <trkpt lat="43.70746" lon="7.2696">
        <ele>26</ele>
        <time>2018-03-24T18:11:23Z</time>
      </trkpt>
      <trkpt lat="43.70633" lon="7.26635">
        <ele>25</ele>
        <time>2018-03-24T18:12:23Z</time>
      </trkpt>
      <trkpt lat="43.70594" lon="7.26524">
        <ele>22</ele>
        <time>2018-03-24T18:13:23Z</time>
      </trkpt>
    </trkseg>
  </trk>
</gpx>